sensor_id;sensor_type;location;lat;lon;timestamp;P1;P2;P0
65361;PMS5003;51961;54.960;73.462;2022-10-22T00:02:55;6.00;6.00;2.00
65361;PMS5003;51961;54.960;73.462;2022-10-22T00:05:57;6.00;6.00;3.00
65361;PMS5003;51961;54.960;73.462;2022-10-22T00:09:00;5.00;4.00;2.50
65361;PMS5003;51961;54.960;73.462;2022-10-22T00:12:02;4.00;3.67;2.00
65361;PMS5003;51961;54.960;73.462;2022-10-22T00:15:04;7.00;4.00;1.00
65361;PMS5003;51961;54.960;73.462;2022-10-22T00:18:16;6.00;5.00;2.00
65361;PMS5003;51961;54.960;73.462;2022-10-22T00:21:18;3.00;3.00;1.00
65361;PMS5003;51961;54.960;73.462;2022-10-22T00:24:20;4.67;4.00;1.00
65361;PMS5003;51961;54.960;73.462;2022-10-22T00:27:22;4.00;3.00;1.00
65361;PMS5003;51961;54.960;73.462;2022-10-22T00:30:30;3.67;3.67;1.00
65361;PMS5003;51961;54.960;73.462;2022-10-22T00:33:32;4.00;4.00;2.00
65361;PMS5003;51961;54.960;73.462;2022-10-22T00:36:44;3.00;3.00;1.00
65361;PMS5003;51961;54.960;73.462;2022-10-22T00:39:46;5.00;4.00;2.00
65361;PMS5003;51961;54.960;73.462;2022-10-22T00:42:51;4.00;3.00;2.00
65361;PMS5003;51961;54.960;73.462;2022-10-22T00:45:53;6.00;4.00;3.00
65361;PMS5003;51961;54.960;73.462;2022-10-22T00:49:05;5.00;3.67;2.00
65361;PMS5003;51961;54.960;73.462;2022-10-22T00:52:07;4.67;4.67;3.00
65361;PMS5003;51961;54.960;73.462;2022-10-22T00:55:10;5.00;5.00;2.00
65361;PMS5003;51961;54.960;73.462;2022-10-22T00:58:13;5.67;5.00;3.00
65361;PMS5003;51961;54.960;73.462;2022-10-22T01:01:17;8.00;6.00;3.33
65361;PMS5003;51961;54.960;73.462;2022-10-22T01:04:22;8.33;6.67;3.00
65361;PMS5003;51961;54.960;73.462;2022-10-22T01:07:26;7.75;5.00;2.50
65361;PMS5003;51961;54.960;73.462;2022-10-22T01:16:54;6.67;6.00;3.00
65361;PMS5003;51961;54.960;73.462;2022-10-22T01:23:47;7.75;5.75;3.00
65361;PMS5003;51961;54.960;73.462;2022-10-22T01:30:07;11.33;7.00;3.00
65361;PMS5003;51961;54.960;73.462;2022-10-22T01:33:10;10.00;7.50;3.00
65361;PMS5003;51961;54.960;73.462;2022-10-22T01:36:13;6.67;6.67;3.00
65361;PMS5003;51961;54.960;73.462;2022-10-22T01:39:17;10.75;7.00;3.00
65361;PMS5003;51961;54.960;73.462;2022-10-22T01:42:20;10.75;6.00;2.00
65361;PMS5003;51961;54.960;73.462;2022-10-22T01:45:23;11.75;6.75;3.75
65361;PMS5003;51961;54.960;73.462;2022-10-22T02:07:53;11.50;6.00;2.75
65361;PMS5003;51961;54.960;73.462;2022-10-22T02:11:01;9.00;7.00;1.00
65361;PMS5003;51961;54.960;73.462;2022-10-22T02:14:15;6.00;4.00;2.00
65361;PMS5003;51961;54.960;73.462;2022-10-22T02:17:19;7.33;7.00;2.00
65361;PMS5003;51961;54.960;73.462;2022-10-22T02:20:27;7.75;6.25;3.00
65361;PMS5003;51961;54.960;73.462;2022-10-22T02:23:35;8.50;7.00;2.00
65361;PMS5003;51961;54.960;73.462;2022-10-22T02:26:46;7.75;6.50;2.50
65361;PMS5003;51961;54.960;73.462;2022-10-22T02:33:07;8.00;5.00;2.00
65361;PMS5003;51961;54.960;73.462;2022-10-22T02:36:10;7.00;5.00;2.00
65361;PMS5003;51961;54.960;73.462;2022-10-22T02:39:23;6.00;5.00;3.00
65361;PMS5003;51961;54.960;73.462;2022-10-22T02:42:26;5.00;4.00;2.00
65361;PMS5003;51961;54.960;73.462;2022-10-22T02:45:40;4.00;3.00;2.00
65361;PMS5003;51961;54.960;73.462;2022-10-22T02:48:47;3.33;3.00;1.00
65361;PMS5003;51961;54.960;73.462;2022-10-22T02:51:49;3.33;2.00;1.00
65361;PMS5003;51961;54.960;73.462;2022-10-22T02:54:51;5.00;4.00;0.00
65361;PMS5003;51961;54.960;73.462;2022-10-22T02:57:53;7.00;4.00;0.00
65361;PMS5003;51961;54.960;73.462;2022-10-22T03:00:55;5.00;3.67;0.00
65361;PMS5003;51961;54.960;73.462;2022-10-22T03:04:05;5.00;4.33;0.00
65361;PMS5003;51961;54.960;73.462;2022-10-22T03:07:07;8.33;7.33;3.67
65361;PMS5003;51961;54.960;73.462;2022-10-22T03:10:14;6.33;4.33;2.00
65361;PMS5003;51961;54.960;73.462;2022-10-22T03:13:18;7.67;6.33;2.67
65361;PMS5003;51961;54.960;73.462;2022-10-22T03:16:21;7.00;6.25;3.00
65361;PMS5003;51961;54.960;73.462;2022-10-22T03:19:23;7.00;5.33;3.00
65361;PMS5003;51961;54.960;73.462;2022-10-22T03:22:28;13.50;12.00;7.00
65361;PMS5003;51961;54.960;73.462;2022-10-22T03:25:35;14.50;11.00;5.25
65361;PMS5003;51961;54.960;73.462;2022-10-22T03:28:37;11.00;9.00;4.75
65361;PMS5003;51961;54.960;73.462;2022-10-22T03:31:41;14.33;11.67;7.67
65361;PMS5003;51961;54.960;73.462;2022-10-22T03:34:43;14.00;10.50;4.00
65361;PMS5003;51961;54.960;73.462;2022-10-22T03:37:58;7.00;4.25;1.00
65361;PMS5003;51961;54.960;73.462;2022-10-22T03:41:00;3.00;3.00;1.00
65361;PMS5003;51961;54.960;73.462;2022-10-22T03:44:03;3.00;3.00;1.00
65361;PMS5003;51961;54.960;73.462;2022-10-22T03:47:06;3.00;2.00;0.00
65361;PMS5003;51961;54.960;73.462;2022-10-22T03:50:08;3.00;3.00;0.00
65361;PMS5003;51961;54.960;73.462;2022-10-22T03:53:11;7.00;5.33;3.00
65361;PMS5003;51961;54.960;73.462;2022-10-22T03:56:19;11.00;8.00;4.00
65361;PMS5003;51961;54.960;73.462;2022-10-22T03:59:21;9.75;5.75;3.00
65361;PMS5003;51961;54.960;73.462;2022-10-22T04:02:33;7.33;7.00;2.00
65361;PMS5003;51961;54.960;73.462;2022-10-22T04:05:35;7.33;6.67;2.00
65361;PMS5003;51961;54.960;73.462;2022-10-22T04:08:37;9.00;7.00;3.00
65361;PMS5003;51961;54.960;73.462;2022-10-22T04:11:40;7.50;7.00;3.00
65361;PMS5003;51961;54.960;73.462;2022-10-22T04:14:50;7.00;7.00;2.00
65361;PMS5003;51961;54.960;73.462;2022-10-22T04:17:52;10.00;7.00;3.00
65361;PMS5003;51961;54.960;73.462;2022-10-22T04:20:54;10.50;7.00;3.00
65361;PMS5003;51961;54.960;73.462;2022-10-22T04:23:58;7.75;6.00;3.00
65361;PMS5003;51961;54.960;73.462;2022-10-22T04:27:00;7.00;5.00;3.00
65361;PMS5003;51961;54.960;73.462;2022-10-22T04:30:02;6.67;6.67;3.00
65361;PMS5003;51961;54.960;73.462;2022-10-22T04:33:10;7.00;5.33;2.00
65361;PMS5003;51961;54.960;73.462;2022-10-22T04:36:14;10.00;9.00;3.33
65361;PMS5003;51961;54.960;73.462;2022-10-22T04:39:16;12.00;11.00;3.00
65361;PMS5003;51961;54.960;73.462;2022-10-22T04:42:18;7.00;5.00;3.00
65361;PMS5003;51961;54.960;73.462;2022-10-22T04:45:20;4.00;3.00;1.00
65361;PMS5003;51961;54.960;73.462;2022-10-22T04:48:32;4.67;3.33;1.00
65361;PMS5003;51961;54.960;73.462;2022-10-22T04:51:34;7.00;3.00;1.00
65361;PMS5003;51961;54.960;73.462;2022-10-22T04:54:37;4.00;4.00;2.00
65361;PMS5003;51961;54.960;73.462;2022-10-22T04:57:39;7.00;7.00;3.00
65361;PMS5003;51961;54.960;73.462;2022-10-22T05:00:41;7.00;5.00;2.00
65361;PMS5003;51961;54.960;73.462;2022-10-22T05:03:44;5.33;5.00;3.00
65361;PMS5003;51961;54.960;73.462;2022-10-22T05:06:47;7.00;4.67;2.00
65361;PMS5003;51961;54.960;73.462;2022-10-22T05:09:49;6.00;5.00;2.00
65361;PMS5003;51961;54.960;73.462;2022-10-22T05:12:51;7.00;6.00;3.00
65361;PMS5003;51961;54.960;73.462;2022-10-22T05:15:53;7.00;6.00;3.00
65361;PMS5003;51961;54.960;73.462;2022-10-22T05:18:56;6.00;4.67;3.00
65361;PMS5003;51961;54.960;73.462;2022-10-22T05:22:00;6.33;5.67;2.00
65361;PMS5003;51961;54.960;73.462;2022-10-22T05:25:03;5.00;4.00;3.00
65361;PMS5003;51961;54.960;73.462;2022-10-22T05:28:05;7.00;5.00;1.00
65361;PMS5003;51961;54.960;73.462;2022-10-22T05:31:09;5.00;4.00;0.00
65361;PMS5003;51961;54.960;73.462;2022-10-22T05:34:11;4.00;3.33;0.00
65361;PMS5003;51961;54.960;73.462;2022-10-22T05:37:13;4.33;4.00;1.00
65361;PMS5003;51961;54.960;73.462;2022-10-22T05:40:15;8.00;7.00;3.00
65361;PMS5003;51961;54.960;73.462;2022-10-22T05:43:18;10.75;7.75;3.75
65361;PMS5003;51961;54.960;73.462;2022-10-22T05:46:32;9.00;7.00;3.00
65361;PMS5003;51961;54.960;73.462;2022-10-22T05:49:34;9.67;7.00;3.00
65361;PMS5003;51961;54.960;73.462;2022-10-22T05:52:37;8.00;7.00;3.00
65361;PMS5003;51961;54.960;73.462;2022-10-22T05:55:39;7.00;7.00;3.00
65361;PMS5003;51961;54.960;73.462;2022-10-22T05:58:43;7.00;7.00;3.00
65361;PMS5003;51961;54.960;73.462;2022-10-22T06:01:45;10.67;7.33;3.00
65361;PMS5003;51961;54.960;73.462;2022-10-22T06:04:47;10.00;7.00;3.00
65361;PMS5003;51961;54.960;73.462;2022-10-22T06:07:49;14.00;9.00;4.00
65361;PMS5003;51961;54.960;73.462;2022-10-22T06:10:51;14.00;9.33;4.00
65361;PMS5003;51961;54.960;73.462;2022-10-22T06:13:54;9.00;6.50;2.00
65361;PMS5003;51961;54.960;73.462;2022-10-22T06:17:02;7.00;5.00;2.00
65361;PMS5003;51961;54.960;73.462;2022-10-22T06:20:04;5.00;3.00;2.00
65361;PMS5003;51961;54.960;73.462;2022-10-22T06:23:06;4.00;4.00;2.00
65361;PMS5003;51961;54.960;73.462;2022-10-22T06:26:09;6.00;5.00;1.00
65361;PMS5003;51961;54.960;73.462;2022-10-22T06:29:12;3.00;3.00;1.00
65361;PMS5003;51961;54.960;73.462;2022-10-22T06:32:15;4.33;3.00;1.00
65361;PMS5003;51961;54.960;73.462;2022-10-22T06:35:24;5.33;3.67;1.00
65361;PMS5003;51961;54.960;73.462;2022-10-22T06:38:26;5.67;5.00;2.00
65361;PMS5003;51961;54.960;73.462;2022-10-22T06:41:28;6.00;4.33;1.00
65361;PMS5003;51961;54.960;73.462;2022-10-22T06:44:30;5.00;4.00;1.67
65361;PMS5003;51961;54.960;73.462;2022-10-22T06:47:42;6.00;4.67;2.00
65361;PMS5003;51961;54.960;73.462;2022-10-22T06:50:44;5.33;4.00;3.00
65361;PMS5003;51961;54.960;73.462;2022-10-22T06:53:51;6.00;4.00;2.00
65361;PMS5003;51961;54.960;73.462;2022-10-22T06:56:54;5.67;3.67;1.00
65361;PMS5003;51961;54.960;73.462;2022-10-22T06:59:57;5.00;3.00;1.00
65361;PMS5003;51961;54.960;73.462;2022-10-22T07:02:59;5.67;5.00;2.00
65361;PMS5003;51961;54.960;73.462;2022-10-22T07:06:03;6.00;5.33;2.00
65361;PMS5003;51961;54.960;73.462;2022-10-22T07:09:05;3.00;3.00;0.00
65361;PMS5003;51961;54.960;73.462;2022-10-22T07:12:08;5.00;3.33;0.00
65361;PMS5003;51961;54.960;73.462;2022-10-22T07:15:10;4.00;4.00;0.00
65361;PMS5003;51961;54.960;73.462;2022-10-22T07:18:12;8.00;5.67;1.00
65361;PMS5003;51961;54.960;73.462;2022-10-22T07:21:16;4.67;3.33;2.00
65361;PMS5003;51961;54.960;73.462;2022-10-22T07:24:19;5.33;4.00;3.00
65361;PMS5003;51961;54.960;73.462;2022-10-22T07:27:21;4.00;3.00;1.00
65361;PMS5003;51961;54.960;73.462;2022-10-22T07:30:23;5.33;5.00;2.00
65361;PMS5003;51961;54.960;73.462;2022-10-22T07:33:25;3.33;3.00;1.33
65361;PMS5003;51961;54.960;73.462;2022-10-22T07:36:34;5.00;4.00;1.00
65361;PMS5003;51961;54.960;73.462;2022-10-22T07:39:36;4.00;3.00;1.00
65361;PMS5003;51961;54.960;73.462;2022-10-22T07:42:38;5.00;4.00;1.00
65361;PMS5003;51961;54.960;73.462;2022-10-22T07:45:40;4.00;4.00;2.00
65361;PMS5003;51961;54.960;73.462;2022-10-22T07:48:42;5.00;5.00;1.00
65361;PMS5003;51961;54.960;73.462;2022-10-22T07:51:44;6.00;5.33;3.00
65361;PMS5003;51961;54.960;73.462;2022-10-22T07:54:47;5.00;4.00;1.00
65361;PMS5003;51961;54.960;73.462;2022-10-22T07:57:50;6.00;4.33;1.00
65361;PMS5003;51961;54.960;73.462;2022-10-22T08:01:02;5.33;4.00;1.00
65361;PMS5003;51961;54.960;73.462;2022-10-22T08:04:12;5.00;5.00;2.00
65361;PMS5003;51961;54.960;73.462;2022-10-22T08:07:20;6.00;5.00;3.00
65361;PMS5003;51961;54.960;73.462;2022-10-22T08:10:26;7.00;6.00;2.67
65361;PMS5003;51961;54.960;73.462;2022-10-22T08:13:29;3.67;3.67;2.00
65361;PMS5003;51961;54.960;73.462;2022-10-22T08:16:31;7.67;6.00;3.00
65361;PMS5003;51961;54.960;73.462;2022-10-22T08:19:33;4.00;3.00;2.00
65361;PMS5003;51961;54.960;73.462;2022-10-22T08:22:36;4.00;3.67;2.00
65361;PMS5003;51961;54.960;73.462;2022-10-22T08:25:38;8.67;6.00;3.00
65361;PMS5003;51961;54.960;73.462;2022-10-22T08:28:40;7.00;6.00;2.67
65361;PMS5003;51961;54.960;73.462;2022-10-22T08:31:42;9.67;8.00;3.00
65361;PMS5003;51961;54.960;73.462;2022-10-22T08:34:49;6.33;6.00;3.00
65361;PMS5003;51961;54.960;73.462;2022-10-22T08:37:51;6.00;5.33;2.00
65361;PMS5003;51961;54.960;73.462;2022-10-22T08:50:32;11.00;8.00;3.00
65361;PMS5003;51961;54.960;73.462;2022-10-22T08:53:38;10.00;5.67;3.00
65361;PMS5003;51961;54.960;73.462;2022-10-22T08:56:43;15.33;11.00;6.00
65361;PMS5003;51961;54.960;73.462;2022-10-22T08:59:47;16.75;13.25;6.00
65361;PMS5003;51961;54.960;73.462;2022-10-22T09:06:07;12.00;9.75;3.00
65361;PMS5003;51961;54.960;73.462;2022-10-22T09:09:15;6.00;4.00;2.00
65361;PMS5003;51961;54.960;73.462;2022-10-22T09:12:17;4.33;3.00;2.00
65361;PMS5003;51961;54.960;73.462;2022-10-22T09:15:23;5.00;4.00;2.00
65361;PMS5003;51961;54.960;73.462;2022-10-22T09:18:45;6.00;6.00;2.00
65361;PMS5003;51961;54.960;73.462;2022-10-22T09:28:25;2.67;2.33;0.00
65361;PMS5003;51961;54.960;73.462;2022-10-22T09:31:28;6.00;6.00;1.00
65361;PMS5003;51961;54.960;73.462;2022-10-22T09:34:31;9.00;9.00;5.00
65361;PMS5003;51961;54.960;73.462;2022-10-22T09:37:34;6.00;6.00;3.00
65361;PMS5003;51961;54.960;73.462;2022-10-22T09:40:44;6.67;6.00;3.00
65361;PMS5003;51961;54.960;73.462;2022-10-22T09:43:57;6.00;6.00;3.00
65361;PMS5003;51961;54.960;73.462;2022-10-22T09:47:02;6.00;6.00;3.00
65361;PMS5003;51961;54.960;73.462;2022-10-22T09:53:26;7.00;6.00;3.00
65361;PMS5003;51961;54.960;73.462;2022-10-22T09:56:34;6.33;5.00;3.67
65361;PMS5003;51961;54.960;73.462;2022-10-22T09:59:37;7.00;5.33;3.00
65361;PMS5003;51961;54.960;73.462;2022-10-22T10:02:40;6.00;6.00;3.00
65361;PMS5003;51961;54.960;73.462;2022-10-22T10:05:49;6.00;5.00;2.00
65361;PMS5003;51961;54.960;73.462;2022-10-22T10:08:52;6.00;6.00;3.00
65361;PMS5003;51961;54.960;73.462;2022-10-22T10:18:26;6.00;4.67;3.00
65361;PMS5003;51961;54.960;73.462;2022-10-22T10:21:34;5.00;3.33;3.00
65361;PMS5003;51961;54.960;73.462;2022-10-22T10:34:24;7.33;6.00;3.00
65361;PMS5003;51961;54.960;73.462;2022-10-22T10:37:38;9.00;6.00;3.00
65361;PMS5003;51961;54.960;73.462;2022-10-22T10:57:33;7.67;6.00;3.00
65361;PMS5003;51961;54.960;73.462;2022-10-22T11:00:31;9.00;6.00;2.00
65361;PMS5003;51961;54.960;73.462;2022-10-22T11:03:45;7.33;6.00;2.00
65361;PMS5003;51961;54.960;73.462;2022-10-22T11:06:52;11.00;8.00;4.00
65361;PMS5003;51961;54.960;73.462;2022-10-22T11:10:08;10.33;7.00;4.00
65361;PMS5003;51961;54.960;73.462;2022-10-22T11:16:31;13.33;9.00;4.00
65361;PMS5003;51961;54.960;73.462;2022-10-22T11:23:04;11.00;7.00;4.00
65361;PMS5003;51961;54.960;73.462;2022-10-22T11:26:04;12.00;8.00;2.00
65361;PMS5003;51961;54.960;73.462;2022-10-22T11:29:10;15.00;8.00;4.00
65361;PMS5003;51961;54.960;73.462;2022-10-22T11:32:20;15.00;10.00;4.00
65361;PMS5003;51961;54.960;73.462;2022-10-22T11:35:34;13.00;10.00;4.00
65361;PMS5003;51961;54.960;73.462;2022-10-22T11:38:38;14.00;10.67;5.00
65361;PMS5003;51961;54.960;73.462;2022-10-22T11:41:43;14.00;10.75;4.00
65361;PMS5003;51961;54.960;73.462;2022-10-22T11:44:46;13.67;11.00;4.00
65361;PMS5003;51961;54.960;73.462;2022-10-22T11:54:49;10.67;7.00;2.00
65361;PMS5003;51961;54.960;73.462;2022-10-22T11:57:55;13.00;8.75;4.00
65361;PMS5003;51961;54.960;73.462;2022-10-22T12:07:31;13.67;11.00;4.67
65361;PMS5003;51961;54.960;73.462;2022-10-22T12:10:35;15.67;13.00;4.00
65361;PMS5003;51961;54.960;73.462;2022-10-22T12:20:10;11.00;7.67;2.00
65361;PMS5003;51961;54.960;73.462;2022-10-22T12:23:14;13.00;7.75;3.75
65361;PMS5003;51961;54.960;73.462;2022-10-22T12:26:23;11.00;9.00;3.00
65361;PMS5003;51961;54.960;73.462;2022-10-22T12:29:25;10.00;8.00;2.00
65361;PMS5003;51961;54.960;73.462;2022-10-22T12:32:36;13.00;9.33;3.00
65361;PMS5003;51961;54.960;73.462;2022-10-22T12:35:42;14.00;8.00;3.00
65361;PMS5003;51961;54.960;73.462;2022-10-22T12:38:45;13.00;6.00;2.00
65361;PMS5003;51961;54.960;73.462;2022-10-22T12:41:59;12.00;7.33;3.00
65361;PMS5003;51961;54.960;73.462;2022-10-22T12:45:02;10.00;7.75;2.75
65361;PMS5003;51961;54.960;73.462;2022-10-22T12:51:25;12.00;8.00;2.33
65361;PMS5003;51961;54.960;73.462;2022-10-22T12:54:29;11.25;6.00;2.00
65361;PMS5003;51961;54.960;73.462;2022-10-22T12:57:33;13.00;9.50;3.00
65361;PMS5003;51961;54.960;73.462;2022-10-22T13:00:36;13.75;12.00;3.00
65361;PMS5003;51961;54.960;73.462;2022-10-22T13:03:41;13.00;12.00;4.00
65361;PMS5003;51961;54.960;73.462;2022-10-22T13:06:44;13.00;10.00;3.00
65361;PMS5003;51961;54.960;73.462;2022-10-22T13:09:55;12.00;8.33;2.67
65361;PMS5003;51961;54.960;73.462;2022-10-22T13:12:59;13.00;10.00;4.00
65361;PMS5003;51961;54.960;73.462;2022-10-22T13:16:21;16.00;10.50;3.25
65361;PMS5003;51961;54.960;73.462;2022-10-22T13:19:41;15.33;12.00;3.00
65361;PMS5003;51961;54.960;73.462;2022-10-22T13:23:36;13.00;10.00;3.00
65361;PMS5003;51961;54.960;73.462;2022-10-22T13:26:14;15.00;12.00;5.00
65361;PMS5003;51961;54.960;73.462;2022-10-22T13:29:17;11.00;8.00;3.00
65361;PMS5003;51961;54.960;73.462;2022-10-22T13:32:26;13.00;7.00;3.00
65361;PMS5003;51961;54.960;73.462;2022-10-22T13:35:29;12.00;9.00;2.67
65361;PMS5003;51961;54.960;73.462;2022-10-22T13:38:32;12.00;6.00;2.00
65361;PMS5003;51961;54.960;73.462;2022-10-22T13:41:38;10.00;5.00;2.67
65361;PMS5003;51961;54.960;73.462;2022-10-22T13:44:40;10.00;6.00;2.00
65361;PMS5003;51961;54.960;73.462;2022-10-22T13:47:50;10.00;5.00;2.00
65361;PMS5003;51961;54.960;73.462;2022-10-22T13:50:53;8.67;6.00;2.67
65361;PMS5003;51961;54.960;73.462;2022-10-22T13:53:56;12.00;8.67;3.00
65361;PMS5003;51961;54.960;73.462;2022-10-22T13:57:08;10.00;7.00;2.00
65361;PMS5003;51961;54.960;73.462;2022-10-22T14:00:16;11.67;8.00;2.00
65361;PMS5003;51961;54.960;73.462;2022-10-22T14:03:28;12.00;8.00;3.00
65361;PMS5003;51961;54.960;73.462;2022-10-22T14:06:37;13.00;8.00;4.00
65361;PMS5003;51961;54.960;73.462;2022-10-22T14:09:41;12.25;10.00;5.00
65361;PMS5003;51961;54.960;73.462;2022-10-22T14:12:44;16.00;12.00;5.00
65361;PMS5003;51961;54.960;73.462;2022-10-22T14:15:48;16.00;12.75;5.00
65361;PMS5003;51961;54.960;73.462;2022-10-22T14:19:00;16.00;13.00;4.67
65361;PMS5003;51961;54.960;73.462;2022-10-22T14:22:03;15.00;12.50;5.00
65361;PMS5003;51961;54.960;73.462;2022-10-22T14:25:07;14.00;11.00;4.67
65361;PMS5003;51961;54.960;73.462;2022-10-22T14:28:10;15.00;14.00;4.00
65361;PMS5003;51961;54.960;73.462;2022-10-22T14:31:13;15.00;13.67;6.00
65361;PMS5003;51961;54.960;73.462;2022-10-22T14:34:15;15.75;13.00;7.00
65361;PMS5003;51961;54.960;73.462;2022-10-22T14:37:23;17.00;15.00;6.00
65361;PMS5003;51961;54.960;73.462;2022-10-22T14:40:30;16.25;15.00;7.00
65361;PMS5003;51961;54.960;73.462;2022-10-22T14:43:33;20.00;15.00;5.50
65361;PMS5003;51961;54.960;73.462;2022-10-22T14:46:38;17.00;14.00;5.00
65361;PMS5003;51961;54.960;73.462;2022-10-22T14:49:42;15.00;14.00;7.00
65361;PMS5003;51961;54.960;73.462;2022-10-22T14:52:50;16.33;14.00;5.00
65361;PMS5003;51961;54.960;73.462;2022-10-22T14:55:52;16.00;15.00;6.00
65361;PMS5003;51961;54.960;73.462;2022-10-22T14:58:57;17.00;14.67;5.00
65361;PMS5003;51961;54.960;73.462;2022-10-22T15:01:58;18.67;15.00;6.67
65361;PMS5003;51961;54.960;73.462;2022-10-22T15:05:00;15.00;14.00;5.67
65361;PMS5003;51961;54.960;73.462;2022-10-22T15:08:03;16.33;13.00;7.00
65361;PMS5003;51961;54.960;73.462;2022-10-22T15:11:06;17.50;15.00;5.75
65361;PMS5003;51961;54.960;73.462;2022-10-22T15:14:07;20.33;17.00;8.00
65361;PMS5003;51961;54.960;73.462;2022-10-22T15:17:10;24.67;20.00;11.00
65361;PMS5003;51961;54.960;73.462;2022-10-22T15:20:12;30.50;23.50;13.50
65361;PMS5003;51961;54.960;73.462;2022-10-22T15:23:15;30.00;23.00;14.00
65361;PMS5003;51961;54.960;73.462;2022-10-22T15:26:18;29.75;23.75;15.00
65361;PMS5003;51961;54.960;73.462;2022-10-22T15:29:21;31.75;24.00;14.00
65361;PMS5003;51961;54.960;73.462;2022-10-22T15:32:25;34.00;25.50;15.75
65361;PMS5003;51961;54.960;73.462;2022-10-22T15:35:30;33.00;25.00;14.00
65361;PMS5003;51961;54.960;73.462;2022-10-22T15:38:33;33.00;25.25;14.50
65361;PMS5003;51961;54.960;73.462;2022-10-22T15:41:36;35.00;25.75;15.00
65361;PMS5003;51961;54.960;73.462;2022-10-22T15:44:52;31.00;23.50;14.00
65361;PMS5003;51961;54.960;73.462;2022-10-22T15:47:58;27.25;22.75;14.00
65361;PMS5003;51961;54.960;73.462;2022-10-22T15:51:06;28.00;23.00;13.00
65361;PMS5003;51961;54.960;73.462;2022-10-22T15:54:16;27.00;21.00;12.75
65361;PMS5003;51961;54.960;73.462;2022-10-22T15:57:19;28.75;22.50;12.75
65361;PMS5003;51961;54.960;73.462;2022-10-22T16:00:22;23.00;20.75;13.00
65361;PMS5003;51961;54.960;73.462;2022-10-22T16:03:27;25.50;21.00;13.00
65361;PMS5003;51961;54.960;73.462;2022-10-22T16:06:41;26.25;20.75;13.00
65361;PMS5003;51961;54.960;73.462;2022-10-22T16:09:44;26.00;21.00;11.50
65361;PMS5003;51961;54.960;73.462;2022-10-22T16:12:48;25.25;20.25;10.00
65361;PMS5003;51961;54.960;73.462;2022-10-22T16:16:05;25.00;20.75;10.00
65361;PMS5003;51961;54.960;73.462;2022-10-22T16:19:10;23.75;18.75;10.00
65361;PMS5003;51961;54.960;73.462;2022-10-22T16:22:14;22.00;18.00;7.00
65361;PMS5003;51961;54.960;73.462;2022-10-22T16:25:17;24.25;20.00;7.50
65361;PMS5003;51961;54.960;73.462;2022-10-22T16:28:28;22.00;16.00;7.00
65361;PMS5003;51961;54.960;73.462;2022-10-22T16:31:30;20.00;15.00;6.25
65361;PMS5003;51961;54.960;73.462;2022-10-22T16:34:43;22.00;16.00;6.00
65361;PMS5003;51961;54.960;73.462;2022-10-22T16:37:46;22.75;15.75;5.00
65361;PMS5003;51961;54.960;73.462;2022-10-22T16:40:53;18.00;15.00;5.00
65361;PMS5003;51961;54.960;73.462;2022-10-22T16:43:56;20.00;16.00;7.00
65361;PMS5003;51961;54.960;73.462;2022-10-22T16:46:59;19.33;15.00;5.33
65361;PMS5003;51961;54.960;73.462;2022-10-22T16:50:02;20.67;15.00;5.00
65361;PMS5003;51961;54.960;73.462;2022-10-22T16:53:05;19.75;16.75;6.50
65361;PMS5003;51961;54.960;73.462;2022-10-22T16:56:14;20.25;18.00;7.00
65361;PMS5003;51961;54.960;73.462;2022-10-22T16:59:27;17.00;15.00;6.00
65361;PMS5003;51961;54.960;73.462;2022-10-22T17:02:30;19.50;15.00;5.00
65361;PMS5003;51961;54.960;73.462;2022-10-22T17:05:36;18.25;15.00;5.00
65361;PMS5003;51961;54.960;73.462;2022-10-22T17:08:44;16.00;14.00;4.00
65361;PMS5003;51961;54.960;73.462;2022-10-22T17:11:46;16.50;10.00;3.50
65361;PMS5003;51961;54.960;73.462;2022-10-22T17:14:48;15.00;12.00;4.00
65361;PMS5003;51961;54.960;73.462;2022-10-22T17:17:50;15.00;12.00;5.00
65361;PMS5003;51961;54.960;73.462;2022-10-22T17:20:53;17.33;13.00;4.00
65361;PMS5003;51961;54.960;73.462;2022-10-22T17:23:56;14.00;13.00;5.00
65361;PMS5003;51961;54.960;73.462;2022-10-22T17:26:57;15.00;12.33;4.33
65361;PMS5003;51961;54.960;73.462;2022-10-22T17:29:59;17.67;13.00;5.00
65361;PMS5003;51961;54.960;73.462;2022-10-22T17:33:12;16.50;12.00;2.50
65361;PMS5003;51961;54.960;73.462;2022-10-22T17:36:13;13.67;11.00;4.00
65361;PMS5003;51961;54.960;73.462;2022-10-22T17:39:16;14.67;10.00;3.00
65361;PMS5003;51961;54.960;73.462;2022-10-22T17:42:24;15.00;9.00;4.00
65361;PMS5003;51961;54.960;73.462;2022-10-22T17:45:37;15.00;9.00;3.00
65361;PMS5003;51961;54.960;73.462;2022-10-22T17:48:40;15.00;10.00;3.00
65361;PMS5003;51961;54.960;73.462;2022-10-22T17:51:43;15.00;11.25;4.00
65361;PMS5003;51961;54.960;73.462;2022-10-22T17:54:47;14.00;10.00;3.33
65361;PMS5003;51961;54.960;73.462;2022-10-22T17:57:54;9.00;4.50;2.00
65361;PMS5003;51961;54.960;73.462;2022-10-22T18:00:57;10.00;7.33;2.67
65361;PMS5003;51961;54.960;73.462;2022-10-22T18:04:00;8.67;5.00;2.00
65361;PMS5003;51961;54.960;73.462;2022-10-22T18:07:04;5.00;5.00;1.00
65361;PMS5003;51961;54.960;73.462;2022-10-22T18:10:07;7.33;7.00;1.33
65361;PMS5003;51961;54.960;73.462;2022-10-22T18:13:10;7.00;5.00;1.00
65361;PMS5003;51961;54.960;73.462;2022-10-22T18:16:13;5.00;5.00;2.00
65361;PMS5003;51961;54.960;73.462;2022-10-22T18:19:17;5.33;3.00;1.00
65361;PMS5003;51961;54.960;73.462;2022-10-22T18:22:20;5.00;3.67;0.00
65361;PMS5003;51961;54.960;73.462;2022-10-22T18:25:27;7.00;5.00;2.00
65361;PMS5003;51961;54.960;73.462;2022-10-22T18:28:34;3.00;2.00;0.67
65361;PMS5003;51961;54.960;73.462;2022-10-22T18:31:41;2.00;1.00;1.00
65361;PMS5003;51961;54.960;73.462;2022-10-22T18:34:54;2.00;0.00;0.00
65361;PMS5003;51961;54.960;73.462;2022-10-22T18:37:56;4.33;1.33;0.00
65361;PMS5003;51961;54.960;73.462;2022-10-22T18:41:08;2.00;1.33;0.00
65361;PMS5003;51961;54.960;73.462;2022-10-22T18:44:11;1.00;1.00;0.00
65361;PMS5003;51961;54.960;73.462;2022-10-22T18:47:13;0.00;0.00;0.00
65361;PMS5003;51961;54.960;73.462;2022-10-22T18:50:15;0.00;0.00;0.00
65361;PMS5003;51961;54.960;73.462;2022-10-22T18:53:17;0.00;0.00;0.00
65361;PMS5003;51961;54.960;73.462;2022-10-22T18:56:23;0.00;0.00;0.00
65361;PMS5003;51961;54.960;73.462;2022-10-22T18:59:27;0.00;0.00;0.00
65361;PMS5003;51961;54.960;73.462;2022-10-22T19:02:30;0.00;0.00;0.00
65361;PMS5003;51961;54.960;73.462;2022-10-22T19:05:32;0.00;0.00;0.00
65361;PMS5003;51961;54.960;73.462;2022-10-22T19:08:40;0.00;0.00;0.00
65361;PMS5003;51961;54.960;73.462;2022-10-22T19:11:42;0.00;0.00;0.00
65361;PMS5003;51961;54.960;73.462;2022-10-22T19:14:46;0.00;0.00;0.00
65361;PMS5003;51961;54.960;73.462;2022-10-22T19:17:50;0.00;0.00;0.00
65361;PMS5003;51961;54.960;73.462;2022-10-22T19:21:02;0.00;0.00;0.00
65361;PMS5003;51961;54.960;73.462;2022-10-22T19:24:06;0.00;0.00;0.00
65361;PMS5003;51961;54.960;73.462;2022-10-22T19:27:08;0.00;0.00;0.00
65361;PMS5003;51961;54.960;73.462;2022-10-22T19:30:10;0.00;0.00;0.00
65361;PMS5003;51961;54.960;73.462;2022-10-22T19:33:23;0.00;0.00;0.00
65361;PMS5003;51961;54.960;73.462;2022-10-22T19:36:31;0.00;0.00;0.00
65361;PMS5003;51961;54.960;73.462;2022-10-22T19:39:44;0.00;0.00;0.00